createdAt,value
2023-02-19T00:02:25.775Z,7.40
2023-02-19T00:07:28.493Z,7.40
2023-02-19T00:12:31.274Z,7.30
2023-02-19T00:17:33.913Z,7.30
2023-02-19T00:22:36.624Z,7.20
2023-02-19T00:27:39.535Z,7.20
2023-02-19T00:32:42.345Z,7.10
2023-02-19T00:37:46.810Z,7.10
2023-02-19T00:42:49.559Z,7.00
2023-02-19T00:47:52.810Z,7.00
2023-02-19T00:52:55.458Z,6.90
2023-02-19T00:57:58.228Z,6.80
2023-02-19T01:03:01.221Z,6.80
2023-02-19T01:08:04.099Z,6.80
2023-02-19T01:13:06.851Z,6.80
2023-02-19T01:18:10.254Z,6.80
2023-02-19T01:23:14.402Z,6.80
2023-02-19T01:28:17.067Z,6.80
2023-02-19T01:33:19.770Z,6.80
2023-02-19T01:38:22.436Z,6.80
2023-02-19T01:43:25.297Z,6.80
2023-02-19T01:48:29.926Z,6.80
2023-02-19T01:53:37.899Z,6.80
2023-02-19T01:58:41.205Z,6.80
2023-02-19T02:03:47.432Z,6.80
2023-02-19T02:09:15.364Z,6.80
2023-02-19T02:14:20.613Z,6.80
2023-02-19T02:19:30.833Z,6.80
2023-02-19T02:25:00.827Z,6.80
2023-02-19T02:30:27.317Z,6.80
2023-02-19T02:36:01.664Z,6.90
2023-02-19T02:41:05.674Z,6.90
2023-02-19T02:46:13.472Z,6.90
2023-02-19T02:51:29.396Z,6.90
2023-02-19T02:56:41.695Z,6.90
2023-02-19T03:02:11.775Z,6.90
2023-02-19T03:07:14.632Z,7.00
2023-02-19T03:12:37.429Z,6.90
2023-02-19T03:18:06.618Z,6.90
2023-02-19T03:23:11.112Z,7.00
2023-02-19T03:28:17.808Z,7.00
2023-02-19T03:33:28.856Z,7.00
2023-02-19T03:38:48.501Z,7.00
2023-02-19T03:44:07.216Z,7.00
2023-02-19T03:49:24.059Z,7.00
2023-02-19T03:54:40.946Z,7.00
2023-02-19T03:59:48.379Z,7.00
2023-02-19T04:05:03.269Z,7.00
2023-02-19T04:10:09.509Z,7.00
2023-02-19T04:15:23.635Z,7.00
2023-02-19T04:20:30.148Z,7.00
2023-02-19T04:25:34.680Z,7.00
2023-02-19T04:30:37.356Z,7.00
2023-02-19T04:35:40.156Z,6.90
2023-02-19T04:40:42.848Z,6.90
2023-02-19T04:45:45.566Z,6.90
2023-02-19T04:50:48.234Z,6.90
2023-02-19T04:55:53.489Z,6.90
2023-02-19T05:00:56.663Z,6.80
2023-02-19T05:06:06.699Z,6.90
2023-02-19T05:11:12.292Z,6.80
2023-02-19T05:16:16.987Z,6.80
2023-02-19T05:21:19.906Z,6.80
2023-02-19T05:26:24.097Z,6.90
2023-02-19T05:31:26.993Z,6.80
2023-02-19T05:36:29.658Z,6.90
2023-02-19T05:41:32.295Z,6.90
2023-02-19T05:46:35.017Z,6.90
2023-02-19T05:51:37.886Z,6.90
2023-02-19T05:56:41.824Z,6.90
2023-02-19T06:01:45.783Z,6.90
2023-02-19T06:06:49.304Z,6.90
2023-02-19T06:11:52.000Z,6.90
2023-02-19T06:16:54.768Z,6.90
2023-02-19T06:21:57.526Z,7.00
2023-02-19T06:27:00.417Z,6.90
2023-02-19T06:32:03.301Z,7.00
2023-02-19T06:37:06.060Z,7.10
2023-02-19T06:42:08.849Z,7.10
2023-02-19T06:47:11.640Z,7.20
2023-02-19T06:52:14.328Z,7.20
2023-02-19T06:57:17.331Z,7.20
2023-02-19T07:02:20.180Z,7.30
2023-02-19T07:07:22.958Z,7.40
2023-02-19T07:12:25.805Z,7.40
2023-02-19T07:17:28.518Z,7.40
2023-02-19T07:22:31.190Z,7.40
2023-02-19T07:27:33.853Z,7.50
2023-02-19T07:32:36.744Z,7.50
2023-02-19T07:37:40.835Z,7.60
2023-02-19T07:42:43.556Z,7.50
2023-02-19T07:47:46.366Z,7.50
2023-02-19T07:52:49.158Z,7.60
2023-02-19T07:57:52.075Z,7.60
2023-02-19T08:03:00.603Z,7.80
2023-02-19T08:08:06.101Z,7.90
2023-02-19T08:13:19.625Z,8.00
2023-02-19T08:18:27.401Z,8.10
2023-02-19T08:23:30.218Z,8.10
2023-02-19T08:28:33.488Z,8.10
2023-02-19T08:33:37.002Z,8.20
2023-02-19T08:38:39.811Z,8.30
2023-02-19T08:43:43.463Z,8.50
2023-02-19T08:48:46.346Z,8.70
2023-02-19T08:53:49.153Z,8.80
2023-02-19T08:58:51.982Z,8.80
2023-02-19T09:03:54.705Z,8.90
2023-02-19T09:08:57.454Z,8.80
2023-02-19T09:14:00.158Z,8.80
2023-02-19T09:19:06.416Z,8.80
2023-02-19T09:24:10.375Z,8.80
2023-02-19T09:29:13.157Z,8.80
2023-02-19T09:34:16.010Z,8.70
2023-02-19T09:39:19.466Z,8.70
2023-02-19T09:44:31.093Z,8.50
2023-02-19T09:49:41.637Z,8.40
2023-02-19T09:54:46.906Z,8.40
2023-02-19T09:59:52.908Z,8.40
2023-02-19T10:04:55.761Z,8.40
2023-02-19T10:10:03.045Z,8.40
2023-02-19T10:15:30.244Z,8.40
2023-02-19T10:20:33.392Z,8.30
2023-02-19T10:25:37.336Z,8.20
2023-02-19T10:30:40.224Z,8.30
2023-02-19T10:35:54.857Z,8.20
2023-02-19T10:41:18.913Z,8.10
2023-02-19T10:46:35.973Z,8.10
2023-02-19T10:51:41.385Z,8.10
2023-02-19T10:56:44.292Z,7.80
2023-02-19T11:01:58.423Z,7.60
2023-02-19T11:07:18.864Z,7.60
2023-02-19T11:12:33.866Z,7.60
2023-02-19T11:17:36.845Z,7.50
2023-02-19T11:22:42.264Z,7.60
2023-02-19T11:28:21.024Z,7.40
2023-02-19T11:33:28.099Z,7.50
2023-02-19T11:38:31.102Z,7.30
2023-02-19T11:43:43.959Z,7.30
2023-02-19T11:49:09.687Z,7.00
2023-02-19T11:54:39.763Z,6.70
2023-02-19T11:59:51.895Z,6.70
2023-02-19T12:05:16.507Z,7.20
2023-02-19T12:10:56.418Z,7.80
2023-02-19T12:16:19.228Z,7.40
2023-02-19T12:21:33.382Z,7.30
2023-02-19T12:26:51.083Z,7.20
2023-02-19T12:32:21.512Z,7.00
2023-02-19T12:37:50.896Z,6.80
2023-02-19T12:43:12.304Z,6.70
2023-02-19T12:48:19.510Z,6.60
2023-02-19T12:53:45.136Z,6.50
2023-02-19T12:58:54.267Z,6.50
2023-02-19T13:04:18.227Z,6.30
2023-02-19T13:09:36.081Z,6.20
2023-02-19T13:14:46.310Z,6.30
2023-02-19T13:19:53.447Z,6.30
2023-02-19T13:24:57.340Z,6.40
2023-02-19T13:30:30.827Z,6.30
2023-02-19T13:35:52.659Z,6.20
2023-02-19T13:40:59.338Z,6.10
2023-02-19T13:46:09.468Z,6.10
2023-02-19T13:51:24.054Z,6.20
2023-02-19T13:56:35.468Z,6.10
2023-02-19T14:01:51.737Z,6.00
2023-02-19T14:07:03.911Z,5.80
2023-02-19T14:12:16.399Z,5.70
2023-02-19T14:17:44.127Z,5.70
2023-02-19T14:22:52.225Z,5.60
2023-02-19T14:28:00.775Z,5.50
2023-02-19T14:33:11.623Z,5.50
2023-02-19T14:38:32.354Z,5.20
2023-02-19T14:43:36.765Z,4.90
2023-02-19T14:48:46.067Z,4.80
2023-02-19T14:53:49.521Z,4.70
2023-02-19T14:59:21.235Z,4.70
2023-02-19T15:04:27.581Z,4.80
2023-02-19T15:09:33.633Z,4.70
2023-02-19T15:14:36.921Z,4.70
2023-02-19T15:19:40.486Z,4.70
2023-02-19T15:24:48.508Z,4.70
2023-02-19T15:29:53.848Z,4.70
2023-02-19T15:35:01.736Z,4.70
2023-02-19T15:40:07.959Z,4.60
2023-02-19T15:45:40.866Z,4.60
2023-02-19T15:50:52.351Z,4.60
2023-02-19T15:56:06.914Z,4.50
2023-02-19T16:01:16.853Z,4.40
2023-02-19T16:06:19.942Z,4.40
2023-02-19T16:11:22.882Z,4.30
2023-02-19T16:16:30.148Z,4.30
2023-02-19T16:21:32.960Z,4.20
2023-02-19T16:26:43.442Z,4.20
2023-02-19T16:31:56.309Z,4.20
2023-02-19T16:36:59.378Z,4.20
2023-02-19T16:42:04.989Z,4.20
2023-02-19T16:47:25.438Z,4.20
2023-02-19T16:52:28.980Z,4.80
2023-02-19T16:57:31.648Z,4.80
2023-02-19T17:02:34.488Z,4.80
2023-02-19T17:07:37.178Z,4.70
2023-02-19T17:12:39.939Z,4.80
2023-02-19T17:17:43.047Z,5.00
2023-02-19T17:22:45.717Z,4.40
2023-02-19T17:27:48.688Z,4.20
2023-02-19T17:32:51.493Z,4.10
2023-02-19T17:37:54.377Z,4.00
2023-02-19T17:42:58.366Z,4.10
2023-02-19T17:48:01.565Z,4.00
2023-02-19T17:53:04.600Z,4.00
2023-02-19T17:58:07.462Z,4.00
2023-02-19T18:03:11.039Z,3.90
2023-02-19T18:08:14.457Z,3.90
2023-02-19T18:13:17.450Z,3.80
2023-02-19T18:18:20.777Z,3.90
2023-02-19T18:23:23.848Z,3.80
2023-02-19T18:28:26.881Z,3.80
2023-02-19T18:33:29.898Z,3.60
2023-02-19T18:38:32.833Z,3.60
2023-02-19T18:43:35.588Z,3.50
2023-02-19T18:48:39.046Z,3.40
2023-02-19T18:53:43.470Z,3.30
2023-02-19T18:58:46.783Z,3.20
2023-02-19T19:03:50.329Z,3.20
2023-02-19T19:08:53.130Z,3.30
2023-02-19T19:13:56.090Z,3.30
2023-02-19T19:18:59.061Z,3.40
2023-02-19T19:24:01.794Z,3.40
2023-02-19T19:29:04.673Z,3.30
2023-02-19T19:34:07.635Z,3.30
2023-02-19T19:39:10.430Z,3.20
2023-02-19T19:44:13.215Z,3.20
2023-02-19T19:49:20.186Z,3.30
2023-02-19T19:54:23.081Z,3.30
2023-02-19T19:59:25.961Z,3.10
2023-02-19T20:04:29.382Z,2.90
2023-02-19T20:09:32.241Z,2.80
2023-02-19T20:14:38.599Z,2.70
2023-02-19T20:19:42.701Z,2.60
2023-02-19T20:24:49.671Z,2.50
2023-02-19T20:29:52.738Z,2.40
2023-02-19T20:34:55.542Z,2.30
2023-02-19T20:39:58.788Z,2.20
2023-02-19T20:45:01.748Z,2.10
2023-02-19T20:50:05.054Z,2.00
2023-02-19T20:55:09.277Z,2.10
2023-02-19T21:00:12.561Z,2.00
2023-02-19T21:05:17.872Z,2.00
2023-02-19T21:10:20.729Z,1.90
2023-02-19T21:15:24.249Z,1.80
2023-02-19T21:20:26.997Z,1.80
2023-02-19T21:25:31.719Z,1.70
2023-02-19T21:30:34.452Z,1.70
2023-02-19T21:35:37.202Z,1.70
2023-02-19T21:40:40.028Z,1.70
2023-02-19T21:45:43.353Z,1.80
2023-02-19T21:50:46.353Z,1.90
2023-02-19T21:55:58.366Z,2.00
2023-02-19T22:01:01.988Z,2.10
2023-02-19T22:06:04.982Z,2.10
2023-02-19T22:11:07.768Z,2.20
2023-02-19T22:16:10.998Z,2.10
2023-02-19T22:21:14.552Z,2.00
2023-02-19T22:26:31.589Z,2.00
2023-02-19T22:31:35.122Z,1.90
2023-02-19T22:36:38.040Z,1.90
2023-02-19T22:41:43.383Z,1.80
2023-02-19T22:46:48.838Z,1.70
2023-02-19T22:51:56.807Z,1.70
2023-02-19T22:56:59.675Z,1.60
2023-02-19T23:02:02.442Z,1.50
2023-02-19T23:07:07.164Z,1.70
2023-02-19T23:12:11.591Z,1.70
2023-02-19T23:17:14.393Z,1.70
2023-02-19T23:22:17.433Z,1.80
2023-02-19T23:27:20.780Z,1.70
2023-02-19T23:32:24.134Z,1.80
2023-02-19T23:37:27.008Z,1.70
2023-02-19T23:42:31.655Z,1.80
2023-02-19T23:47:34.728Z,1.80
2023-02-19T23:52:37.581Z,1.80
2023-02-19T23:57:40.424Z,1.90
